Time;durP1;ratioP1;P1;durP2;ratioP2;P2;SDS_P1;SDS_P2;PMS_P1;PMS_P2;Temp;Humidity;BMP_temperature;BMP_pressure;BME280_temperature;BME280_humidity;BME280_pressure;Samples;Min_cycle;Max_cycle;Signal;HPM_P1;HPM_P2
2022/10/03 00:01:24;;;;;;;12.10;1.83;;;;;;;;;;4951876;29;20034;-69
2022/10/03 00:04:11;;;;;;;12.88;2.00;;;;;;;;;;4969034;28;20035;-68
2022/10/03 00:06:59;;;;;;;14.48;2.30;;;;;;;;;;4952900;29;20544;-71
2022/10/03 00:09:25;;;;;;;10.30;1.55;;;;;;;;;;5029694;28;20102;-70
2022/10/03 00:12:11;;;;;;;10.30;1.73;;;;;;;;;;5033004;28;20029;-68
2022/10/03 00:14:53;;;;;;;9.10;1.73;;;;;;;;;;5032943;28;20044;-70
2022/10/03 00:17:56;;;;;;;16.13;2.50;;;;;;;;;;5033008;28;20102;-68
2022/10/03 00:20:44;;;;;;;11.43;1.98;;;;;;;;;;5038031;28;20028;-68
2022/10/03 00:23:37;;;;;;;10.10;1.55;;;;;;;;;;5037352;28;20350;-68
2022/10/03 00:26:29;;;;;;;8.27;1.77;;;;;;;;;;5052644;28;20390;-68
2022/10/03 00:29:00;;;;;;;10.93;1.98;;;;;;;;;;5052678;28;20025;-68
2022/10/03 00:31:50;;;;;;;12.43;1.77;;;;;;;;;;5052830;28;20486;-70
2022/10/03 00:34:23;;;;;;;10.90;1.98;;;;;;;;;;5052705;28;20036;-70
2022/10/03 00:37:25;;;;;;;13.88;1.77;;;;;;;;;;5052548;28;20496;-69
2022/10/03 00:40:10;;;;;;;9.13;1.67;;;;;;;;;;5052649;28;20025;-69
2022/10/03 00:43:02;;;;;;;12.20;1.73;;;;;;;;;;5052646;28;20025;-68
2022/10/03 00:45:39;;;;;;;14.10;3.13;;;;;;;;;;5052652;28;20037;-68
2022/10/03 00:48:13;;;;;;;17.60;2.85;;;;;;;;;;5052451;28;20370;-69
2022/10/03 00:50:57;;;;;;;17.95;1.70;;;;;;;;;;5052594;28;20033;-70
2022/10/03 00:53:44;;;;;;;9.98;2.13;;;;;;;;;;5052569;28;20025;-71
2022/10/03 00:56:20;;;;;;;10.77;1.75;;;;;;;;;;5052373;28;20067;-70
2022/10/03 00:59:15;;;;;;;11.45;2.22;;;;;;;;;;5052519;28;20478;-69
2022/10/03 01:01:46;;;;;;;12.55;1.88;;;;;;;;;;5047463;28;20053;-68
2022/10/03 01:04:39;;;;;;;18.20;2.65;;;;;;;;;;5052282;28;20029;-68
2022/10/03 01:07:29;;;;;;;14.18;2.28;;;;;;;;;;5052407;28;20025;-68
2022/10/03 01:10:31;;;;;;;11.68;1.63;;;;;;;;;;5052249;28;20028;-69
2022/10/03 01:13:41;;;;;;;12.32;1.75;;;;;;;;;;5052371;28;20021;-67
2022/10/03 01:16:09;;;;;;;;;;;;;;;;;;5030663;28;20392;-68
2022/10/03 01:18:41;;;;;;;10.70;1.60;;;;;;;;;;5030256;28;19944;-68
2022/10/03 01:21:21;;;;;;;13.65;1.73;;;;;;;;;;5030182;28;20025;-70
2022/10/03 01:23:59;;;;;;;;;;;;;;;;;;5030317;28;20049;-70
2022/10/03 01:27:02;;;;;;;11.75;2.40;;;;;;;;;;5030278;28;19966;-70
2022/10/03 01:30:21;;;;;;;12.95;2.35;;;;;;;;;;5030213;28;20505;-70
2022/10/03 01:32:54;;;;;;;10.88;1.30;;;;;;;;;;5034062;28;20498;-71
2022/10/03 01:35:29;;;;;;;10.80;1.75;;;;;;;;;;5034064;28;20115;-71
2022/10/03 01:38:23;;;;;;;8.90;2.10;;;;;;;;;;5033763;28;20045;-70
2022/10/03 01:41:10;;;;;;;6.60;1.60;;;;;;;;;;5033415;28;20045;-71
2022/10/03 01:43:45;;;;;;;7.38;1.40;;;;;;;;;;5033605;28;20037;-70
2022/10/03 01:46:37;;;;;;;10.82;2.05;;;;;;;;;;5033659;28;20033;-71
2022/10/03 01:49:21;;;;;;;9.88;1.50;;;;;;;;;;5028369;28;20034;-70
2022/10/03 01:51:55;;;;;;;10.95;1.77;;;;;;;;;;5035051;28;20029;-70
2022/10/03 01:54:40;;;;;;;9.40;1.30;;;;;;;;;;5035307;28;20026;-71
2022/10/03 01:57:42;;;;;;;8.95;1.70;;;;;;;;;;5035735;28;20467;-70
2022/10/03 02:00:19;;;;;;;12.85;1.42;;;;;;;;;;5035500;28;20121;-70
2022/10/03 02:03:15;;;;;;;11.65;1.35;;;;;;;;;;5035358;28;20482;-71
2022/10/03 02:05:53;;;;;;;13.80;1.65;;;;;;;;;;5035372;28;20042;-70
2022/10/03 02:08:44;;;;;;;10.40;1.75;;;;;;;;;;5035213;28;20033;-71
2022/10/03 02:11:10;;;;;;;;;;;;;;;;;;5036019;28;20025;-71
2022/10/03 02:13:48;;;;;;;8.20;1.40;;;;;;;;;;5035224;28;20362;-68
2022/10/03 02:16:42;;;;;;;13.60;1.90;;;;;;;;;;5035295;28;20032;-70
2022/10/03 02:19:31;;;;;;;6.70;1.58;;;;;;;;;;5033194;28;20506;-71
2022/10/03 02:21:59;;;;;;;9.33;1.80;;;;;;;;;;5032836;28;20034;-70
2022/10/03 02:24:51;;;;;;;7.60;1.55;;;;;;;;;;5032830;28;20148;-67
2022/10/03 02:28:00;;;;;;;8.68;1.50;;;;;;;;;;5033072;28;20030;-68
2022/10/03 02:30:56;;;;;;;5.95;1.35;;;;;;;;;;5032894;28;20039;-68
2022/10/03 02:33:56;;;;;;;13.32;1.73;;;;;;;;;;5032849;28;20030;-68
2022/10/03 02:36:30;;;;;;;6.22;1.38;;;;;;;;;;5032057;28;20060;-71
2022/10/03 02:39:20;;;;;;;10.27;1.63;;;;;;;;;;5032647;28;20080;-67
2022/10/03 02:42:16;;;;;;;5.72;1.42;;;;;;;;;;5032807;28;20029;-70
2022/10/03 02:45:19;;;;;;;6.70;1.20;;;;;;;;;;5032539;28;20057;-68
2022/10/03 02:47:50;;;;;;;7.25;1.40;;;;;;;;;;5032661;28;20041;-67
2022/10/03 02:50:34;;;;;;;9.85;1.55;;;;;;;;;;5032599;28;20112;-70
2022/10/03 02:53:11;;;;;;;6.10;1.20;;;;;;;;;;5032626;28;20108;-70
2022/10/03 02:56:19;;;;;;;7.13;1.55;;;;;;;;;;5033025;28;20076;-69
2022/10/03 02:59:15;;;;;;;5.68;1.10;;;;;;;;;;5034102;28;20132;-70
2022/10/03 03:02:18;;;;;;;7.35;1.33;;;;;;;;;;5034457;28;20060;-69
2022/10/03 03:04:49;;;;;;;5.07;1.38;;;;;;;;;;5034172;28;20033;-71
2022/10/03 03:07:39;;;;;;;6.90;1.90;;;;;;;;;;5034216;28;20030;-68
2022/10/03 03:10:28;;;;;;;6.72;1.40;;;;;;;;;;5034281;28;20043;-69
2022/10/03 03:13:24;;;;;;;5.63;1.45;;;;;;;;;;5034251;28;20048;-68
2022/10/03 03:16:02;;;;;;;12.20;1.63;;;;;;;;;;5034232;28;20471;-69
2022/10/03 03:18:40;;;;;;;3.72;1.17;;;;;;;;;;5033925;28;20418;-67
2022/10/03 03:21:25;;;;;;;8.00;1.35;;;;;;;;;;5039010;28;20028;-69
2022/10/03 03:23:59;;;;;;;9.95;1.45;;;;;;;;;;5053821;28;20394;-69
2022/10/03 03:26:37;;;;;;;11.73;1.50;;;;;;;;;;5053998;28;20025;-68
2022/10/03 03:29:02;;;;;;;8.52;1.50;;;;;;;;;;5053918;28;20035;-68
2022/10/03 03:31:33;;;;;;;6.65;1.33;;;;;;;;;;5053912;28;20029;-68
2022/10/03 03:34:06;;;;;;;12.50;1.63;;;;;;;;;;5053868;28;20078;-67
2022/10/03 03:36:35;;;;;;;9.13;1.50;;;;;;;;;;5053916;28;20029;-68
2022/10/03 03:39:22;;;;;;;5.82;1.35;;;;;;;;;;5053455;28;20434;-68
2022/10/03 03:41:50;;;;;;;6.93;1.20;;;;;;;;;;5053653;28;20040;-68
2022/10/03 03:44:28;;;;;;;8.32;1.40;;;;;;;;;;5053262;28;20448;-68
2022/10/03 03:47:15;;;;;;;10.20;1.95;;;;;;;;;;5051954;28;20028;-68
2022/10/03 03:50:11;;;;;;;8.93;1.65;;;;;;;;;;5053553;28;20390;-68
2022/10/03 03:52:58;;;;;;;9.00;1.55;;;;;;;;;;5051844;28;20390;-67
2022/10/03 03:55:44;;;;;;;10.98;2.50;;;;;;;;;;5053268;28;20053;-69
2022/10/03 03:58:32;;;;;;;11.35;2.10;;;;;;;;;;5053217;28;20473;-68
2022/10/03 04:01:06;;;;;;;9.23;1.90;;;;;;;;;;5053249;28;20029;-68
2022/10/03 04:03:59;;;;;;;7.72;1.48;;;;;;;;;;5053013;28;20025;-68
2022/10/03 04:06:45;;;;;;;6.82;1.80;;;;;;;;;;5053396;28;20029;-67
2022/10/03 04:09:45;;;;;;;15.38;1.70;;;;;;;;;;5053178;28;20021;-70
2022/10/03 04:12:20;;;;;;;5.95;1.13;;;;;;;;;;5053147;28;20033;-68
2022/10/03 04:15:07;;;;;;;6.80;1.38;;;;;;;;;;5052871;28;20115;-68
2022/10/03 04:20:38;;;;;;;12.27;1.67;;;;;;;;;;5052773;28;20078;-69
2022/10/03 04:23:31;;;;;;;8.85;1.80;;;;;;;;;;5052933;28;20474;-70
2022/10/03 04:26:11;;;;;;;6.32;1.92;;;;;;;;;;5033038;28;20033;-68
2022/10/03 04:28:49;;;;;;;13.70;1.80;;;;;;;;;;5032828;28;20544;-68
2022/10/03 04:31:28;;;;;;;14.25;1.67;;;;;;;;;;5032938;28;20117;-70
2022/10/03 04:34:13;;;;;;;8.20;1.80;;;;;;;;;;5031392;28;20449;-70
2022/10/03 04:36:50;;;;;;;9.35;1.48;;;;;;;;;;5032988;28;20021;-70
2022/10/03 04:39:38;;;;;;;6.43;1.45;;;;;;;;;;5032853;28;20021;-70
2022/10/03 04:42:22;;;;;;;8.70;1.40;;;;;;;;;;5032862;28;20044;-71
2022/10/03 04:45:17;;;;;;;7.40;1.70;;;;;;;;;;5030877;28;20124;-71
2022/10/03 04:47:55;;;;;;;10.57;1.70;;;;;;;;;;5030574;28;20042;-70
2022/10/03 04:50:36;;;;;;;11.10;1.83;;;;;;;;;;5030697;28;20103;-70
2022/10/03 04:53:18;;;;;;;11.52;1.88;;;;;;;;;;5030675;28;20125;-70
2022/10/03 04:55:49;;;;;;;12.00;1.90;;;;;;;;;;5030648;28;20390;-70
2022/10/03 04:58:33;;;;;;;11.05;1.67;;;;;;;;;;5030470;28;20514;-70
2022/10/03 05:01:13;;;;;;;10.73;1.70;;;;;;;;;;5030561;28;20076;-70
2022/10/03 05:04:03;;;;;;;10.88;2.08;;;;;;;;;;5030325;28;20022;-70
2022/10/03 05:06:51;;;;;;;11.27;1.75;;;;;;;;;;5033163;28;20029;-68
2022/10/03 05:09:38;;;;;;;12.38;1.88;;;;;;;;;;5034263;28;20040;-69
2022/10/03 05:12:17;;;;;;;11.23;1.80;;;;;;;;;;5034190;28;20037;-70
2022/10/03 05:15:15;;;;;;;9.50;2.22;;;;;;;;;;5033907;28;20037;-70
2022/10/03 05:17:44;;;;;;;12.52;2.00;;;;;;;;;;5033877;28;20076;-69
2022/10/03 05:20:29;;;;;;;5.63;1.40;;;;;;;;;;5034001;28;20030;-70
2022/10/03 05:23:05;;;;;;;13.38;1.98;;;;;;;;;;5014280;28;20069;-67
2022/10/03 05:26:27;;;;;;;7.68;1.70;;;;;;;;;;5032812;28;20041;-69
2022/10/03 05:29:09;;;;;;;10.10;2.05;;;;;;;;;;5013705;28;20030;-71
2022/10/03 05:31:43;;;;;;;7.15;1.90;;;;;;;;;;4997802;28;20125;-68
2022/10/03 05:34:46;;;;;;;13.68;2.97;;;;;;;;;;5014319;28;20466;-70
2022/10/03 05:37:17;;;;;;;11.30;1.95;;;;;;;;;;5012466;28;20041;-68
2022/10/03 05:40:03;;;;;;;9.65;2.35;;;;;;;;;;5014008;28;20541;-70
2022/10/03 05:42:46;;;;;;;13.90;2.13;;;;;;;;;;5013849;28;20380;-70
2022/10/03 05:45:37;;;;;;;14.93;2.35;;;;;;;;;;5013700;28;20160;-68
2022/10/03 05:48:29;;;;;;;8.10;2.30;;;;;;;;;;5013887;28;20025;-70
2022/10/03 05:51:35;;;;;;;14.13;1.98;;;;;;;;;;5013777;28;20033;-71
2022/10/03 05:54:04;;;;;;;11.43;2.17;;;;;;;;;;5013619;28;20084;-70
2022/10/03 05:56:41;;;;;;;10.48;2.00;;;;;;;;;;5013700;28;20045;-68
2022/10/03 05:59:31;;;;;;;10.27;1.92;;;;;;;;;;5013545;28;20030;-70
2022/10/03 06:02:34;;;;;;;9.48;1.75;;;;;;;;;;5019366;28;20046;-71
2022/10/03 06:05:20;;;;;;;11.90;2.03;;;;;;;;;;5035599;28;20037;-69
2022/10/03 06:08:03;;;;;;;15.98;2.42;;;;;;;;;;5035638;28;20486;-69
2022/10/03 06:10:57;;;;;;;7.85;1.60;;;;;;;;;;5035085;28;20022;-70
2022/10/03 06:13:34;;;;;;;9.07;1.98;;;;;;;;;;5035306;28;20029;-70
2022/10/03 06:15:59;;;;;;;12.45;2.13;;;;;;;;;;5034718;28;20474;-68
2022/10/03 06:18:34;;;;;;;20.60;2.78;;;;;;;;;;5035246;28;20020;-69
2022/10/03 06:21:44;;;;;;;12.73;2.22;;;;;;;;;;5053525;28;20090;-69
2022/10/03 06:24:15;;;;;;;11.48;3.17;;;;;;;;;;5032765;28;20057;-67
2022/10/03 06:26:59;;;;;;;14.88;4.47;;;;;;;;;;5033088;28;20029;-69
2022/10/03 06:30:04;;;;;;;13.20;2.40;;;;;;;;;;5032662;28;20041;-68
2022/10/03 06:32:47;;;;;;;13.65;4.13;;;;;;;;;;5032959;28;20026;-68
2022/10/03 06:35:31;;;;;;;13.70;2.72;;;;;;;;;;5032952;28;20124;-71
2022/10/03 06:38:08;;;;;;;10.57;2.85;;;;;;;;;;5032842;28;20083;-67
2022/10/03 06:41:05;;;;;;;11.55;3.25;;;;;;;;;;5032666;28;20089;-69
2022/10/03 06:43:43;;;;;;;11.10;1.90;;;;;;;;;;5031898;28;20053;-68
2022/10/03 06:46:35;;;;;;;8.38;1.98;;;;;;;;;;5032687;28;20040;-68
2022/10/03 06:49:36;;;;;;;17.35;2.30;;;;;;;;;;5029751;28;20502;-67
2022/10/03 06:52:30;;;;;;;9.07;1.88;;;;;;;;;;5032517;28;20087;-69
2022/10/03 06:55:29;;;;;;;10.82;2.47;;;;;;;;;;5032593;28;20042;-69
2022/10/03 06:58:16;;;;;;;10.13;2.35;;;;;;;;;;5032286;28;20124;-69
2022/10/03 07:00:56;;;;;;;11.05;2.15;;;;;;;;;;5033479;28;20120;-70
2022/10/03 07:03:59;;;;;;;10.10;1.83;;;;;;;;;;5034233;28;20443;-70
2022/10/03 07:06:40;;;;;;;11.90;2.55;;;;;;;;;;5032307;28;20026;-68
2022/10/03 07:09:54;;;;;;;12.30;2.28;;;;;;;;;;5047638;28;20033;-70
2022/10/03 07:12:35;;;;;;;6.68;2.15;;;;;;;;;;5053541;28;20037;-71
2022/10/03 07:15:13;;;;;;;;;;;;;;;;;;5054350;28;20432;-69
2022/10/03 07:17:51;;;;;;;11.20;2.42;;;;;;;;;;5053899;28;19982;-71
2022/10/03 07:20:46;;;;;;;9.30;2.60;;;;;;;;;;5053237;28;20021;-69
2022/10/03 07:23:27;;;;;;;9.23;3.05;;;;;;;;;;5032730;28;20025;-68
2022/10/03 07:26:07;;;;;;;8.32;2.20;;;;;;;;;;5033933;28;20030;-68
2022/10/03 07:28:38;;;;;;;;;;;;;;;;;;5032917;28;20029;-68
2022/10/03 07:31:12;;;;;;;7.22;1.77;;;;;;;;;;5033404;28;19959;-70
2022/10/03 07:34:08;;;;;;;10.07;2.55;;;;;;;;;;5033564;28;20105;-68
2022/10/03 07:39:48;;;;;;;15.90;2.53;;;;;;;;;;5033474;28;20100;-69
2022/10/03 07:42:45;;;;;;;11.10;2.10;;;;;;;;;;5033442;28;20545;-71
2022/10/03 07:45:19;;;;;;;10.80;2.13;;;;;;;;;;5033279;28;20053;-71
2022/10/03 07:48:14;;;;;;;11.68;2.10;;;;;;;;;;5033303;28;20021;-70
2022/10/03 07:51:11;;;;;;;11.98;2.13;;;;;;;;;;5032861;28;20064;-70
2022/10/03 07:53:59;;;;;;;13.13;2.20;;;;;;;;;;5033176;28;20036;-71
2022/10/03 07:56:54;;;;;;;8.52;1.95;;;;;;;;;;5032892;28;20033;-70
2022/10/03 07:59:22;;;;;;;13.80;2.30;;;;;;;;;;5011125;28;20038;-71
2022/10/03 08:01:59;;;;;;;12.38;2.65;;;;;;;;;;5011374;28;20479;-71
2022/10/03 08:04:52;;;;;;;16.30;3.03;;;;;;;;;;5010911;28;20446;-71
2022/10/03 08:07:26;;;;;;;11.32;2.75;;;;;;;;;;5010980;28;20034;-71
2022/10/03 08:10:34;;;;;;;14.60;2.25;;;;;;;;;;4994443;28;20388;-70
2022/10/03 08:13:25;;;;;;;8.82;2.03;;;;;;;;;;5010374;28;20033;-70
2022/10/03 08:16:41;;;;;;;10.02;2.22;;;;;;;;;;4971802;28;20583;-70
2022/10/03 08:19:31;;;;;;;13.15;2.22;;;;;;;;;;4932565;29;20035;-71
2022/10/03 08:22:07;;;;;;;8.60;1.80;;;;;;;;;;4933210;29;20137;-70
2022/10/03 08:24:47;;;;;;;10.25;2.05;;;;;;;;;;4932666;29;20071;-70
2022/10/03 08:27:18;;;;;;;;;;;;;;;;;;4933778;29;20043;-71
2022/10/03 08:30:14;;;;;;;20.20;2.30;;;;;;;;;;4933170;29;20013;-71
2022/10/03 08:32:59;;;;;;;10.98;2.05;;;;;;;;;;4933074;29;20127;-71
2022/10/03 08:36:02;;;;;;;10.65;2.08;;;;;;;;;;4928934;29;20126;-71
2022/10/03 08:38:58;;;;;;;10.82;1.40;;;;;;;;;;4895362;29;20473;-71
2022/10/03 08:41:41;;;;;;;12.80;2.55;;;;;;;;;;4895705;29;20395;-71
2022/10/03 08:44:46;;;;;;;12.50;2.13;;;;;;;;;;4894976;29;20063;-70
2022/10/03 08:47:37;;;;;;;13.60;1.83;;;;;;;;;;4895235;29;20044;-71
2022/10/03 08:50:27;;;;;;;7.88;2.20;;;;;;;;;;4895155;29;20118;-72
2022/10/03 08:53:13;;;;;;;13.73;2.45;;;;;;;;;;4944283;28;20112;-70
2022/10/03 08:55:50;;;;;;;12.40;2.55;;;;;;;;;;4990955;28;20030;-69
2022/10/03 08:58:33;;;;;;;7.18;1.65;;;;;;;;;;4990771;28;20133;-70
2022/10/03 09:01:31;;;;;;;7.95;1.55;;;;;;;;;;4991144;28;20476;-71
2022/10/03 09:04:27;;;;;;;8.02;1.42;;;;;;;;;;4990772;28;20448;-71
2022/10/03 09:07:33;;;;;;;9.25;1.70;;;;;;;;;;4990572;28;20522;-73
2022/10/03 09:10:36;;;;;;;8.85;1.38;;;;;;;;;;4981993;28;20038;-70
2022/10/03 09:13:12;;;;;;;10.50;1.83;;;;;;;;;;4990808;28;20502;-71
2022/10/03 09:16:09;;;;;;;9.95;1.85;;;;;;;;;;4990695;28;20116;-69
2022/10/03 09:18:43;;;;;;;7.70;1.60;;;;;;;;;;4990542;28;20125;-71
2022/10/03 09:21:45;;;;;;;10.70;2.65;;;;;;;;;;4996308;28;20026;-71
2022/10/03 09:24:26;;;;;;;13.35;2.00;;;;;;;;;;5033522;28;20041;-71
2022/10/03 09:26:51;;;;;;;7.95;1.60;;;;;;;;;;5052024;28;20029;-70
2022/10/03 09:29:25;;;;;;;10.73;1.95;;;;;;;;;;5051617;28;20028;-71
2022/10/03 09:32:06;;;;;;;10.60;1.92;;;;;;;;;;5051569;28;20029;-68
2022/10/03 09:34:49;;;;;;;;;;;;;;;;;;5052102;28;20021;-69
2022/10/03 09:38:10;;;;;;;12.07;2.95;;;;;;;;;;5051808;28;20379;-69
2022/10/03 09:40:54;;;;;;;;;;;;;;;;;;5030122;28;20026;-70
2022/10/03 09:43:47;;;;;;;10.07;2.05;;;;;;;;;;5029670;28;20047;-68
2022/10/03 09:46:28;;;;;;;15.05;2.58;;;;;;;;;;5029551;28;20042;-70
2022/10/03 09:49:38;;;;;;;15.00;2.35;;;;;;;;;;5029550;28;20103;-68
2022/10/03 09:52:04;;;;;;;;;;;;;;;;;;5031900;28;20066;-70
2022/10/03 09:55:11;;;;;;;12.55;2.33;;;;;;;;;;5033308;28;19972;-70
2022/10/03 09:58:14;;;;;;;6.50;1.70;;;;;;;;;;4993658;28;20431;-70
2022/10/03 10:00:59;;;;;;;9.23;2.33;;;;;;;;;;4993619;28;20069;-67
2022/10/03 10:03:46;;;;;;;9.95;1.73;;;;;;;;;;4993816;28;20125;-71
2022/10/03 10:06:53;;;;;;;9.13;2.42;;;;;;;;;;4993507;28;20373;-67
2022/10/03 10:09:30;;;;;;;8.80;1.60;;;;;;;;;;4993040;28;20038;-67
2022/10/03 10:12:10;;;;;;;10.13;1.45;;;;;;;;;;5007976;28;20038;-67
2022/10/03 10:15:00;;;;;;;10.85;2.13;;;;;;;;;;5013148;28;20160;-67
2022/10/03 10:17:50;;;;;;;13.00;1.80;;;;;;;;;;5012995;28;20033;-67
2022/10/03 10:20:15;;;;;;;8.20;1.88;;;;;;;;;;5011938;28;20124;-68
2022/10/03 10:23:03;;;;;;;9.13;2.00;;;;;;;;;;5012526;28;20125;-68
2022/10/03 10:25:31;;;;;;;5.65;1.60;;;;;;;;;;5012702;28;20030;-67
2022/10/03 10:28:19;;;;;;;9.82;1.90;;;;;;;;;;5012634;28;20064;-68
2022/10/03 10:31:02;;;;;;;10.40;1.70;;;;;;;;;;5012661;28;20196;-70
2022/10/03 10:33:40;;;;;;;9.23;1.80;;;;;;;;;;5040180;28;20044;-70
2022/10/03 10:36:20;;;;;;;11.43;1.92;;;;;;;;;;5054421;28;20170;-70
2022/10/03 10:39:17;;;;;;;16.85;5.18;;;;;;;;;;5053106;28;20485;-69
2022/10/03 10:42:10;;;;;;;14.50;2.00;;;;;;;;;;5054594;28;20113;-68
2022/10/03 10:45:00;;;;;;;11.15;1.92;;;;;;;;;;5054026;28;20041;-66
2022/10/03 10:47:34;;;;;;;8.68;1.90;;;;;;;;;;5054383;28;20033;-67
2022/10/03 10:50:29;;;;;;;8.18;1.83;;;;;;;;;;5053999;28;20025;-69
2022/10/03 10:53:17;;;;;;;7.95;1.67;;;;;;;;;;5051810;28;20514;-70
2022/10/03 10:56:10;;;;;;;9.95;2.00;;;;;;;;;;5052024;28;20041;-70
2022/10/03 10:59:00;;;;;;;9.32;2.08;;;;;;;;;;5051844;28;20059;-69
2022/10/03 11:01:50;;;;;;;9.07;1.65;;;;;;;;;;5052079;28;20103;-69
2022/10/03 11:04:37;;;;;;;8.95;1.88;;;;;;;;;;5051583;28;20064;-69
2022/10/03 11:07:34;;;;;;;9.07;2.05;;;;;;;;;;5051973;28;20040;-67
2022/10/03 11:10:00;;;;;;;10.82;1.92;;;;;;;;;;5034704;28;20041;-70
2022/10/03 11:12:45;;;;;;;8.13;1.80;;;;;;;;;;5051591;28;20029;-70
2022/10/03 11:15:37;;;;;;;10.25;1.83;;;;;;;;;;5051780;28;20055;-70
2022/10/03 11:18:32;;;;;;;8.75;1.83;;;;;;;;;;5051778;28;20072;-70
2022/10/03 11:21:25;;;;;;;11.52;2.10;;;;;;;;;;4949366;29;20059;-71
2022/10/03 11:24:09;;;;;;;8.75;1.70;;;;;;;;;;4934105;29;20039;-71
2022/10/03 11:27:16;;;;;;;13.32;2.05;;;;;;;;;;4934235;29;20541;-70
2022/10/03 11:30:09;;;;;;;11.50;2.00;;;;;;;;;;4884785;29;20060;-69
2022/10/03 11:32:50;;;;;;;11.52;2.00;;;;;;;;;;4895957;29;20044;-70
2022/10/03 11:35:46;;;;;;;8.75;2.13;;;;;;;;;;4896420;29;20064;-71
2022/10/03 11:38:31;;;;;;;10.35;1.63;;;;;;;;;;4896096;29;20044;-71
2022/10/03 11:40:59;;;;;;;12.32;1.88;;;;;;;;;;4896128;29;20040;-69
2022/10/03 11:43:40;;;;;;;5.43;1.60;;;;;;;;;;4896113;29;20056;-70
2022/10/03 11:46:36;;;;;;;10.57;2.00;;;;;;;;;;4896277;29;20052;-71
2022/10/03 11:49:35;;;;;;;5.85;1.75;;;;;;;;;;4895497;29;20033;-71
2022/10/03 11:52:10;;;;;;;11.52;1.92;;;;;;;;;;4896018;29;20491;-70
2022/10/03 11:54:45;;;;;;;11.43;1.98;;;;;;;;;;4895840;29;20032;-69
2022/10/03 11:57:26;;;;;;;10.10;2.10;;;;;;;;;;4902696;29;20517;-71
2022/10/03 12:00:00;;;;;;;10.75;2.25;;;;;;;;;;4933415;29;20044;-69
2022/10/03 12:02:39;;;;;;;10.63;1.73;;;;;;;;;;4933333;29;20024;-69
2022/10/03 12:05:26;;;;;;;7.93;1.70;;;;;;;;;;4940348;28;20046;-70
2022/10/03 12:11:17;;;;;;;11.32;2.50;;;;;;;;;;5032469;28;20091;-69
2022/10/03 12:14:12;;;;;;;10.90;1.95;;;;;;;;;;5032418;28;20021;-69
2022/10/03 12:16:58;;;;;;;8.80;2.15;;;;;;;;;;5032509;28;20040;-67
2022/10/03 12:19:46;;;;;;;13.60;2.72;;;;;;;;;;5031180;28;20037;-68
2022/10/03 12:22:29;;;;;;;7.70;1.88;;;;;;;;;;5046915;28;20032;-69
2022/10/03 12:25:05;;;;;;;7.00;1.40;;;;;;;;;;5052383;28;20047;-68
2022/10/03 12:27:42;;;;;;;8.18;2.50;;;;;;;;;;5052601;28;20028;-68
2022/10/03 12:30:17;;;;;;;12.00;1.95;;;;;;;;;;5052616;28;20043;-69
2022/10/03 12:32:47;;;;;;;11.55;2.03;;;;;;;;;;5051840;28;20021;-67
2022/10/03 12:35:16;;;;;;;4.70;1.13;;;;;;;;;;5052477;28;20037;-70
2022/10/03 12:38:03;;;;;;;6.93;1.70;;;;;;;;;;5052382;28;20051;-69
2022/10/03 12:40:36;;;;;;;11.82;2.10;;;;;;;;;;5052047;28;20057;-67
2022/10/03 12:43:28;;;;;;;7.30;1.50;;;;;;;;;;5050773;28;20115;-69
2022/10/03 12:46:02;;;;;;;6.78;1.60;;;;;;;;;;5050848;28;20111;-68
2022/10/03 12:48:41;;;;;;;6.93;2.08;;;;;;;;;;5052125;28;20043;-70
2022/10/03 12:51:26;;;;;;;15.57;4.18;;;;;;;;;;5052132;28;20029;-67
2022/10/03 12:54:06;;;;;;;7.00;2.67;;;;;;;;;;5052302;28;20073;-70
2022/10/03 12:57:10;;;;;;;13.43;2.92;;;;;;;;;;5052049;28;20025;-70
2022/10/03 12:59:40;;;;;;;10.73;3.35;;;;;;;;;;5051624;28;20463;-69
2022/10/03 13:02:37;;;;;;;12.43;2.17;;;;;;;;;;5052167;28;20025;-72
2022/10/03 13:05:29;;;;;;;9.68;2.53;;;;;;;;;;5052057;28;20025;-69
2022/10/03 13:08:16;;;;;;;12.05;3.08;;;;;;;;;;5051782;28;20464;-69
2022/10/03 13:10:46;;;;;;;9.75;3.20;;;;;;;;;;5051795;28;20441;-71
2022/10/03 13:13:15;;;;;;;10.75;2.55;;;;;;;;;;5052006;28;20463;-70
2022/10/03 13:16:02;;;;;;;12.60;2.45;;;;;;;;;;5051738;28;20037;-69
2022/10/03 13:18:46;;;;;;;8.70;3.03;;;;;;;;;;5051726;28;20016;-70
2022/10/03 13:21:33;;;;;;;10.13;2.30;;;;;;;;;;5052125;28;20573;-66
2022/10/03 13:24:24;;;;;;;10.07;2.38;;;;;;;;;;5029243;28;20041;-69
2022/10/03 13:27:16;;;;;;;9.95;2.20;;;;;;;;;;5031357;28;20072;-68
2022/10/03 13:30:20;;;;;;;10.50;3.67;;;;;;;;;;5029848;28;20042;-68
2022/10/03 13:32:50;;;;;;;8.50;1.95;;;;;;;;;;4955505;28;20046;-67
2022/10/03 13:38:46;;;;;;;9.82;5.40;;;;;;;;;;4955828;29;20073;-68
2022/10/03 13:41:45;;;;;;;14.02;6.18;;;;;;;;;;4955504;29;20035;-70
2022/10/03 13:44:22;;;;;;;13.18;4.22;;;;;;;;;;4955022;28;20071;-71
2022/10/03 13:47:08;;;;;;;9.25;2.85;;;;;;;;;;4955521;29;20038;-69
2022/10/03 13:49:45;;;;;;;12.65;4.38;;;;;;;;;;4954706;28;20460;-69
2022/10/03 13:52:21;;;;;;;8.43;3.10;;;;;;;;;;4955626;28;20074;-71
2022/10/03 13:55:11;;;;;;;8.93;2.58;;;;;;;;;;4955353;28;20129;-68
2022/10/03 13:57:58;;;;;;;6.68;1.63;;;;;;;;;;4955007;28;20031;-71
2022/10/03 14:00:26;;;;;;;7.38;2.33;;;;;;;;;;4959231;28;20070;-68
2022/10/03 14:03:16;;;;;;;9.82;2.10;;;;;;;;;;4974550;28;20488;-70
2022/10/03 14:06:02;;;;;;;6.20;1.80;;;;;;;;;;4974791;28;20112;-70
2022/10/03 14:08:54;;;;;;;9.68;3.60;;;;;;;;;;4984257;28;20121;-71
2022/10/03 14:11:43;;;;;;;13.93;2.75;;;;;;;;;;5055043;28;20037;-70
2022/10/03 14:14:35;;;;;;;11.30;2.78;;;;;;;;;;5051053;28;20389;-70
2022/10/03 14:17:23;;;;;;;9.35;2.63;;;;;;;;;;5047297;28;20485;-74
2022/10/03 14:20:03;;;;;;;12.75;2.80;;;;;;;;;;5054961;28;20462;-71
2022/10/03 14:22:55;;;;;;;17.30;2.72;;;;;;;;;;5054899;28;20083;-71
2022/10/03 14:25:34;;;;;;;11.20;2.83;;;;;;;;;;5032139;28;20047;-72
2022/10/03 14:28:34;;;;;;;9.35;2.80;;;;;;;;;;5032330;28;20033;-72
2022/10/03 14:31:13;;;;;;;8.93;2.75;;;;;;;;;;4973777;28;20485;-71
2022/10/03 14:33:48;;;;;;;9.63;2.58;;;;;;;;;;4973346;28;20143;-72
2022/10/03 14:36:42;;;;;;;12.00;3.58;;;;;;;;;;4973662;28;20039;-72
2022/10/03 14:39:27;;;;;;;11.32;2.97;;;;;;;;;;4973547;28;20042;-71
2022/10/03 14:41:52;;;;;;;18.35;4.97;;;;;;;;;;4973374;28;20026;-69
2022/10/03 14:44:21;;;;;;;7.90;2.20;;;;;;;;;;4973369;28;20495;-72
2022/10/03 14:46:57;;;;;;;11.52;2.00;;;;;;;;;;4973482;28;20436;-70
2022/10/03 14:49:34;;;;;;;8.20;2.13;;;;;;;;;;4973486;28;20039;-71
2022/10/03 14:52:25;;;;;;;9.32;2.28;;;;;;;;;;4973324;28;20067;-71
2022/10/03 14:54:55;;;;;;;12.30;3.65;;;;;;;;;;4973247;28;20034;-71
2022/10/03 14:57:33;;;;;;;9.93;2.30;;;;;;;;;;4973026;28;20027;-71
2022/10/03 15:00:00;;;;;;;8.20;2.08;;;;;;;;;;4973247;28;20038;-71
2022/10/03 15:02:32;;;;;;;11.00;2.40;;;;;;;;;;4973034;28;20122;-67
2022/10/03 15:05:31;;;;;;;7.78;1.77;;;;;;;;;;5003129;28;20044;-67
2022/10/03 15:07:57;;;;;;;10.00;1.92;;;;;;;;;;5032588;28;20049;-68
2022/10/03 15:10:26;;;;;;;10.95;2.15;;;;;;;;;;5033665;28;20093;-69
2022/10/03 15:13:01;;;;;;;8.23;1.80;;;;;;;;;;5033964;28;20505;-68
2022/10/03 15:15:38;;;;;;;10.40;3.08;;;;;;;;;;5033743;28;20027;-68
2022/10/03 15:18:06;;;;;;;7.25;1.83;;;;;;;;;;5033812;28;20037;-68
2022/10/03 15:20:37;;;;;;;10.23;1.80;;;;;;;;;;5033917;28;20069;-68
2022/10/03 15:23:16;;;;;;;8.60;2.08;;;;;;;;;;5053660;28;20029;-66
2022/10/03 15:25:43;;;;;;;6.30;1.38;;;;;;;;;;5053302;28;20072;-67
2022/10/03 15:28:26;;;;;;;14.38;3.63;;;;;;;;;;5053475;28;20033;-67
2022/10/03 15:30:54;;;;;;;9.52;2.95;;;;;;;;;;5053726;28;20474;-67
2022/10/03 15:33:32;;;;;;;8.35;1.92;;;;;;;;;;5053405;28;20039;-68
2022/10/03 15:36:25;;;;;;;13.32;1.77;;;;;;;;;;5053448;28;20513;-69
2022/10/03 15:38:59;;;;;;;9.02;2.10;;;;;;;;;;5053120;28;20083;-68
2022/10/03 15:41:34;;;;;;;9.25;1.83;;;;;;;;;;5052679;28;20394;-70
2022/10/03 15:44:05;;;;;;;7.97;1.52;;;;;;;;;;5052947;28;20093;-69
2022/10/03 15:46:48;;;;;;;13.43;2.70;;;;;;;;;;5053191;28;20158;-70
2022/10/03 15:49:43;;;;;;;10.05;2.45;;;;;;;;;;5052516;28;20100;-70
2022/10/03 15:52:32;;;;;;;12.25;2.70;;;;;;;;;;5031009;28;20040;-68
2022/10/03 15:55:02;;;;;;;17.60;4.20;;;;;;;;;;5030723;28;20022;-68
2022/10/03 15:57:31;;;;;;;46.95;16.67;;;;;;;;;;5030121;28;20136;-70
2022/10/03 15:59:59;;;;;;;10.87;2.27;;;;;;;;;;5035487;28;20024;-67
2022/10/03 16:02:48;;;;;;;9.32;2.90;;;;;;;;;;5050434;28;20041;-68
2022/10/03 16:05:18;;;;;;;20.65;8.50;;;;;;;;;;5050471;28;20497;-68
2022/10/03 16:08:15;;;;;;;15.73;4.75;;;;;;;;;;5050761;28;20500;-69
2022/10/03 16:10:49;;;;;;;13.35;5.25;;;;;;;;;;5045739;28;20156;-70
2022/10/03 16:13:36;;;;;;;10.52;3.83;;;;;;;;;;5011931;28;20037;-68
2022/10/03 16:16:08;;;;;;;14.68;4.07;;;;;;;;;;5030410;28;20064;-71
2022/10/03 16:18:55;;;;;;;17.55;3.28;;;;;;;;;;5042848;28;20120;-71
2022/10/03 16:21:48;;;;;;;13.00;3.40;;;;;;;;;;5041956;28;20025;-70
2022/10/03 16:24:52;;;;;;;12.45;3.70;;;;;;;;;;5029998;28;20068;-69
2022/10/03 16:27:26;;;;;;;13.32;4.47;;;;;;;;;;5030374;28;20030;-70
2022/10/03 16:30:14;;;;;;;12.95;3.78;;;;;;;;;;5047295;28;20033;-71
2022/10/03 16:32:50;;;;;;;14.05;4.45;;;;;;;;;;5052062;28;20428;-69
2022/10/03 16:35:27;;;;;;;19.70;5.00;;;;;;;;;;5052340;28;20386;-71